createdAt,value
2022-08-24T00:02:32.484Z,2.40
2022-08-24T00:06:35.984Z,2.60
2022-08-24T00:10:39.681Z,2.63
2022-08-24T00:14:43.239Z,2.58
2022-08-24T00:18:49.255Z,2.80
2022-08-24T00:22:52.501Z,2.50
2022-08-24T00:26:55.886Z,2.47
2022-08-24T00:30:59.282Z,2.35
2022-08-24T00:35:03.696Z,2.58
2022-08-24T00:39:08.100Z,2.35
2022-08-24T00:43:11.990Z,2.20
2022-08-24T00:47:19.858Z,2.38
2022-08-24T00:51:28.660Z,2.30
2022-08-24T00:55:36.015Z,2.17
2022-08-24T00:59:47.878Z,2.45
2022-08-24T01:03:56.635Z,2.20
2022-08-24T01:08:03.202Z,1.88
2022-08-24T01:12:07.068Z,2.00
2022-08-24T01:16:12.833Z,2.58
2022-08-24T01:20:18.284Z,2.53
2022-08-24T01:24:23.668Z,2.65
2022-08-24T01:28:27.858Z,2.08
2022-08-24T01:32:31.356Z,2.28
2022-08-24T01:36:38.801Z,2.00
2022-08-24T01:40:47.732Z,2.63
2022-08-24T01:44:53.033Z,2.28
2022-08-24T01:48:58.066Z,2.40
2022-08-24T01:53:05.598Z,2.38
2022-08-24T01:57:11.130Z,2.20
2022-08-24T02:01:20.314Z,2.47
2022-08-24T02:05:25.642Z,2.25
2022-08-24T02:09:30.438Z,2.30
2022-08-24T02:13:40.118Z,2.50
2022-08-24T02:17:43.447Z,2.10
2022-08-24T02:21:46.908Z,2.20
2022-08-24T02:25:50.294Z,2.00
2022-08-24T02:29:54.752Z,2.08
2022-08-24T02:33:58.266Z,2.30
2022-08-24T02:38:01.491Z,2.20
2022-08-24T02:42:06.457Z,2.40
2022-08-24T02:46:18.935Z,2.60
2022-08-24T02:50:22.207Z,2.10
2022-08-24T02:54:25.249Z,2.25
2022-08-24T02:58:28.990Z,2.45
2022-08-24T03:02:34.831Z,2.60
2022-08-24T03:06:38.257Z,2.40
2022-08-24T03:10:42.158Z,2.10
2022-08-24T03:14:45.809Z,2.42
2022-08-24T03:18:50.668Z,2.15
2022-08-24T03:22:54.158Z,2.15
2022-08-24T03:26:57.514Z,2.38
2022-08-24T03:31:02.971Z,2.60
2022-08-24T03:35:09.183Z,2.58
2022-08-24T03:39:12.408Z,2.50
2022-08-24T03:43:30.566Z,2.45
2022-08-24T03:47:34.532Z,2.15
2022-08-24T03:51:40.852Z,2.40
2022-08-24T03:55:45.594Z,2.40
2022-08-24T03:59:49.570Z,2.25
2022-08-24T04:03:54.055Z,2.25
2022-08-24T04:08:02.862Z,2.08
2022-08-24T04:12:06.687Z,2.40
2022-08-24T04:16:12.986Z,2.53
2022-08-24T04:20:18.398Z,2.60
2022-08-24T04:24:22.960Z,2.20
2022-08-24T04:28:28.510Z,2.50
2022-08-24T04:32:32.799Z,2.50
2022-08-24T04:36:36.334Z,2.25
2022-08-24T04:40:42.199Z,2.20
2022-08-24T04:44:46.276Z,2.38
2022-08-24T04:48:51.143Z,2.28
2022-08-24T04:52:54.469Z,2.22
2022-08-24T04:56:59.598Z,2.40
2022-08-24T05:01:02.706Z,2.40
2022-08-24T05:05:06.331Z,2.30
2022-08-24T05:09:11.207Z,2.38
2022-08-24T05:13:17.306Z,2.25
2022-08-24T05:17:20.606Z,2.20
2022-08-24T05:21:25.796Z,2.47
2022-08-24T05:25:31.683Z,2.60
2022-08-24T05:29:37.410Z,2.22
2022-08-24T05:33:43.207Z,2.42
2022-08-24T05:37:46.598Z,2.60
2022-08-24T05:41:51.058Z,2.67
2022-08-24T05:46:04.724Z,2.30
2022-08-24T05:50:08.845Z,2.50
2022-08-24T05:54:13.740Z,2.40
2022-08-24T05:58:31.337Z,2.50
2022-08-24T06:02:40.109Z,2.38
2022-08-24T06:06:43.809Z,2.42
2022-08-24T06:10:53.128Z,2.78
2022-08-24T06:14:56.319Z,2.80
2022-08-24T06:19:01.720Z,2.65
2022-08-24T06:23:05.619Z,2.50
2022-08-24T06:27:25.593Z,2.47
2022-08-24T06:31:34.430Z,2.30
2022-08-24T06:35:47.075Z,2.53
2022-08-24T06:39:54.974Z,2.92
2022-08-24T06:43:59.271Z,2.22
2022-08-24T06:48:19.429Z,2.60
2022-08-24T06:52:24.568Z,2.67
2022-08-24T06:56:28.227Z,2.63
2022-08-24T07:00:31.776Z,2.47
2022-08-24T07:04:34.916Z,2.58
2022-08-24T07:08:58.403Z,2.55
2022-08-24T07:13:04.049Z,2.25
2022-08-24T07:17:07.887Z,2.80
2022-08-24T07:21:11.656Z,2.75
2022-08-24T07:25:23.621Z,2.50
2022-08-24T07:29:47.239Z,2.65
2022-08-24T07:33:52.307Z,2.70
2022-08-24T07:37:56.527Z,2.78
2022-08-24T07:42:25.385Z,2.47
2022-08-24T07:46:25.774Z,2.80
2022-08-24T07:50:31.694Z,2.97
2022-08-24T07:54:36.020Z,2.60
2022-08-24T07:58:41.997Z,2.70
2022-08-24T08:02:47.334Z,2.95
2022-08-24T08:06:53.031Z,2.95
2022-08-24T08:10:57.532Z,2.72
2022-08-24T08:15:02.083Z,2.78
2022-08-24T08:19:12.727Z,2.50
2022-08-24T08:23:37.123Z,2.22
2022-08-24T08:31:55.994Z,2.55
2022-08-24T08:36:06.087Z,2.50
2022-08-24T08:40:23.493Z,2.58
2022-08-24T08:44:39.904Z,2.60
2022-08-24T08:49:03.957Z,2.53
2022-08-24T08:53:56.057Z,2.10
2022-08-24T08:58:17.475Z,2.40
2022-08-24T09:02:35.618Z,2.47
2022-08-24T09:07:08.571Z,2.80
2022-08-24T09:11:24.910Z,2.58
2022-08-24T09:15:57.724Z,2.70
2022-08-24T09:20:17.451Z,2.30
2022-08-24T09:24:42.459Z,3.42
2022-08-24T09:29:11.149Z,2.33
2022-08-24T09:33:21.565Z,2.60
2022-08-24T09:37:33.883Z,2.50
2022-08-24T09:42:22.021Z,3.00
2022-08-24T09:46:59.213Z,3.17
2022-08-24T09:51:31.666Z,2.80
2022-08-24T09:56:06.057Z,2.92
2022-08-24T10:00:19.828Z,2.78
2022-08-24T10:04:33.044Z,3.00
2022-08-24T10:08:50.167Z,3.00
2022-08-24T10:13:04.458Z,2.97
2022-08-24T10:17:19.316Z,3.05
2022-08-24T10:21:38.277Z,2.65
2022-08-24T10:25:52.762Z,3.20
2022-08-24T10:30:23.902Z,3.00
2022-08-24T10:34:47.883Z,2.80
2022-08-24T10:39:16.272Z,3.17
2022-08-24T10:43:46.638Z,2.85
2022-08-24T10:48:12.394Z,3.10
2022-08-24T10:52:48.291Z,2.97
2022-08-24T10:57:08.172Z,2.97
2022-08-24T11:01:20.674Z,2.38
2022-08-24T11:05:31.463Z,2.95
2022-08-24T11:09:46.995Z,3.22
2022-08-24T11:13:54.477Z,3.20
2022-08-24T11:18:00.341Z,2.85
2022-08-24T11:22:06.147Z,3.17
2022-08-24T11:26:19.828Z,3.22
2022-08-24T11:30:28.476Z,3.03
2022-08-24T11:34:35.995Z,2.75
2022-08-24T11:38:39.069Z,2.90
2022-08-24T11:43:05.880Z,2.60
2022-08-24T11:47:47.957Z,3.10
2022-08-24T11:52:01.960Z,2.90
2022-08-24T11:56:15.424Z,2.67
2022-08-24T12:00:23.638Z,3.08
2022-08-24T12:04:39.530Z,2.95
2022-08-24T12:08:52.535Z,2.88
2022-08-24T12:13:03.348Z,3.00
2022-08-24T12:17:15.764Z,2.67
2022-08-24T12:21:22.877Z,3.10
2022-08-24T12:25:48.430Z,2.78
2022-08-24T12:29:58.467Z,3.00
2022-08-24T12:34:09.754Z,3.28
2022-08-24T12:38:17.090Z,3.10
2022-08-24T12:42:35.866Z,3.20
2022-08-24T12:46:40.316Z,2.95
2022-08-24T12:50:59.106Z,3.53
2022-08-24T12:55:20.998Z,3.25
2022-08-24T12:59:28.203Z,3.25
2022-08-24T13:03:34.368Z,3.00
2022-08-24T13:07:42.828Z,3.08
2022-08-24T13:11:46.154Z,2.90
2022-08-24T13:16:03.116Z,3.05
2022-08-24T13:20:23.845Z,2.45
2022-08-24T13:24:43.175Z,2.85
2022-08-24T13:28:49.410Z,3.10
2022-08-24T13:33:04.803Z,3.05
2022-08-24T13:37:18.824Z,3.30
2022-08-24T13:41:48.671Z,3.25
2022-08-24T13:45:58.104Z,2.95
2022-08-24T13:50:11.275Z,3.40
2022-08-24T13:54:28.418Z,3.10
2022-08-24T13:58:43.180Z,3.63
2022-08-24T14:03:03.156Z,3.05
2022-08-24T14:07:15.664Z,2.90
2022-08-24T14:11:35.768Z,3.20
2022-08-24T14:16:10.846Z,3.60
2022-08-24T14:20:24.360Z,3.13
2022-08-24T14:24:41.429Z,3.20
2022-08-24T14:28:49.579Z,3.13
2022-08-24T14:33:09.323Z,3.22
2022-08-24T14:37:24.098Z,3.10
2022-08-24T14:41:55.317Z,3.20
2022-08-24T14:46:09.688Z,2.88
2022-08-24T14:50:17.592Z,3.30
2022-08-24T14:54:32.663Z,2.95
2022-08-24T14:58:49.138Z,2.92
2022-08-24T15:03:35.036Z,3.35
2022-08-24T15:07:38.520Z,3.20
2022-08-24T15:11:43.693Z,3.00
2022-08-24T15:15:54.730Z,3.20
2022-08-24T15:20:09.352Z,3.20
2022-08-24T15:28:34.178Z,3.38
2022-08-24T15:32:48.925Z,3.33
2022-08-24T15:37:02.218Z,3.00
2022-08-24T15:41:11.901Z,3.42
2022-08-24T15:45:15.691Z,3.42
2022-08-24T15:49:25.019Z,3.30
2022-08-24T15:53:39.206Z,3.50
2022-08-24T15:57:45.473Z,3.00
2022-08-24T16:02:14.785Z,3.20
2022-08-24T16:06:26.873Z,3.70
2022-08-24T16:10:32.169Z,3.10
2022-08-24T16:14:40.209Z,3.60
2022-08-24T16:18:54.022Z,2.88
2022-08-24T16:23:01.470Z,3.63
2022-08-24T16:27:07.605Z,3.10
2022-08-24T16:31:11.463Z,3.40
2022-08-24T16:35:18.623Z,3.22
2022-08-24T16:39:23.408Z,3.33
2022-08-24T16:43:27.734Z,3.03
2022-08-24T16:47:31.052Z,3.80
2022-08-24T16:51:34.138Z,3.22
2022-08-24T16:55:39.004Z,3.30
2022-08-24T16:59:45.479Z,3.35
2022-08-24T17:03:49.308Z,3.35
2022-08-24T17:07:52.435Z,3.53
2022-08-24T17:11:57.196Z,3.10
2022-08-24T17:16:00.678Z,3.13
2022-08-24T17:20:07.635Z,3.78
2022-08-24T17:24:11.816Z,3.42
2022-08-24T17:28:19.766Z,3.40
2022-08-24T17:32:23.277Z,3.65
2022-08-24T17:36:30.407Z,3.42
2022-08-24T17:40:35.962Z,3.45
2022-08-24T17:44:40.655Z,3.33
2022-08-24T17:48:46.147Z,3.42
2022-08-24T17:52:49.588Z,3.15
2022-08-24T17:56:59.534Z,2.80
2022-08-24T18:01:04.151Z,3.08
2022-08-24T18:05:10.332Z,3.05
2022-08-24T18:09:19.276Z,2.85
2022-08-24T18:13:22.422Z,3.05
2022-08-24T18:17:33.915Z,2.63
2022-08-24T18:21:37.111Z,2.90
2022-08-24T18:25:45.055Z,3.05
2022-08-24T18:29:54.815Z,3.53
2022-08-24T18:34:01.774Z,2.80
2022-08-24T18:38:04.957Z,3.58
2022-08-24T18:42:09.407Z,3.35
2022-08-24T18:46:12.903Z,3.10
2022-08-24T18:50:17.559Z,3.17
2022-08-24T18:54:23.588Z,3.00
2022-08-24T18:58:26.873Z,3.67
2022-08-24T19:02:31.790Z,3.25
2022-08-24T19:06:36.522Z,3.33
2022-08-24T19:10:39.713Z,3.70
2022-08-24T19:14:46.348Z,3.47
2022-08-24T19:18:51.150Z,3.88
2022-08-24T19:22:55.827Z,3.80
2022-08-24T19:27:01.893Z,4.30
2022-08-24T19:31:10.511Z,4.70
2022-08-24T19:35:15.866Z,4.60
2022-08-24T19:39:22.917Z,4.78
2022-08-24T19:43:35.317Z,4.63
2022-08-24T19:47:38.875Z,4.63
2022-08-24T19:51:42.106Z,4.35
2022-08-24T19:55:50.090Z,4.75
2022-08-24T19:59:54.103Z,4.95
2022-08-24T20:03:57.530Z,4.47
2022-08-24T20:08:03.323Z,5.53
2022-08-24T20:12:09.100Z,5.38
2022-08-24T20:16:15.301Z,5.28
2022-08-24T20:20:21.364Z,5.72
2022-08-24T20:24:24.659Z,5.50
2022-08-24T20:28:38.014Z,5.63
2022-08-24T20:32:41.714Z,5.97
2022-08-24T20:36:48.758Z,5.85
2022-08-24T20:40:53.294Z,6.57
2022-08-24T20:44:59.410Z,5.93
2022-08-24T20:49:02.941Z,6.32
2022-08-24T20:53:06.347Z,5.78
2022-08-24T20:57:12.958Z,6.95
2022-08-24T21:01:17.806Z,6.90
2022-08-24T21:05:21.296Z,7.65
2022-08-24T21:09:24.761Z,7.13
2022-08-24T21:13:28.352Z,7.10
2022-08-24T21:17:33.114Z,7.20
2022-08-24T21:21:39.574Z,7.05
2022-08-24T21:25:45.071Z,7.05
2022-08-24T21:29:48.298Z,7.57
2022-08-24T21:34:09.887Z,6.88
2022-08-24T21:38:14.559Z,7.93
2022-08-24T21:42:19.993Z,7.80
2022-08-24T21:46:29.177Z,7.35
2022-08-24T21:50:33.859Z,7.65
2022-08-24T21:54:36.971Z,6.80
2022-08-24T21:58:39.995Z,7.28
2022-08-24T22:02:43.205Z,7.15
2022-08-24T22:06:47.890Z,7.22
2022-08-24T22:10:50.979Z,6.95
2022-08-24T22:14:54.785Z,7.45
2022-08-24T22:18:57.886Z,7.18
2022-08-24T22:23:02.615Z,6.90
2022-08-24T22:27:11.865Z,7.30
2022-08-24T22:31:18.276Z,7.60
2022-08-24T22:35:22.588Z,7.28
2022-08-24T22:39:28.759Z,6.97
2022-08-24T22:43:52.484Z,7.43
2022-08-24T22:47:56.420Z,7.07
2022-08-24T22:52:00.680Z,7.10
2022-08-24T22:56:19.882Z,6.90
2022-08-24T23:00:23.880Z,7.65
2022-08-24T23:04:32.227Z,7.10
2022-08-24T23:08:36.369Z,7.13
2022-08-24T23:12:45.162Z,7.03
2022-08-24T23:16:54.319Z,7.60
2022-08-24T23:21:03.529Z,7.50
2022-08-24T23:25:10.142Z,7.57
2022-08-24T23:29:15.849Z,7.85
2022-08-24T23:33:19.357Z,7.38
2022-08-24T23:37:23.342Z,7.53
2022-08-24T23:41:29.033Z,7.20
2022-08-24T23:45:34.024Z,7.45
2022-08-24T23:49:37.904Z,6.85
2022-08-24T23:53:48.070Z,7.63
2022-08-24T23:57:53.802Z,7.63
